createdAt,value
2022-12-25T00:00:54.673Z,79.29
2022-12-25T00:03:21.711Z,79.57
2022-12-25T00:05:48.212Z,79.74
2022-12-25T00:08:14.716Z,79.80
2022-12-25T00:10:45.273Z,79.41
2022-12-25T00:13:12.201Z,79.39
2022-12-25T00:15:41.778Z,78.35
2022-12-25T00:18:08.541Z,78.29
2022-12-25T00:20:36.103Z,77.68
2022-12-25T00:23:02.557Z,78.41
2022-12-25T00:25:30.484Z,78.45
2022-12-25T00:27:56.942Z,78.20
2022-12-25T00:30:23.414Z,78.04
2022-12-25T00:32:49.920Z,78.59
2022-12-25T00:35:16.448Z,78.54
2022-12-25T00:37:42.917Z,78.49
2022-12-25T00:40:09.841Z,79.46
2022-12-25T00:42:36.319Z,80.19
2022-12-25T00:45:02.868Z,79.98
2022-12-25T00:47:29.529Z,80.12
2022-12-25T00:49:56.028Z,80.68
2022-12-25T00:52:22.569Z,80.44
2022-12-25T00:54:49.022Z,80.00
2022-12-25T00:57:16.170Z,79.37
2022-12-25T00:59:42.769Z,78.88
2022-12-25T01:02:09.447Z,78.83
2022-12-25T01:04:36.089Z,78.87
2022-12-25T01:07:02.547Z,78.83
2022-12-25T01:09:29.020Z,78.28
2022-12-25T01:11:55.499Z,78.56
2022-12-25T01:14:22.201Z,78.89
2022-12-25T01:16:48.734Z,79.13
2022-12-25T01:19:15.340Z,79.06
2022-12-25T01:21:41.822Z,78.97
2022-12-25T01:24:08.340Z,78.18
2022-12-25T01:26:34.814Z,78.07
2022-12-25T01:29:01.571Z,77.82
2022-12-25T01:31:28.156Z,77.98
2022-12-25T01:33:54.685Z,78.05
2022-12-25T01:36:24.873Z,78.35
2022-12-25T01:38:53.446Z,78.43
2022-12-25T01:41:22.693Z,79.25
2022-12-25T01:44:01.279Z,78.74
2022-12-25T01:46:29.041Z,79.33
2022-12-25T01:49:00.217Z,79.21
2022-12-25T01:51:39.241Z,78.99
2022-12-25T01:54:15.725Z,78.86
2022-12-25T01:56:47.278Z,77.67
2022-12-25T01:59:18.766Z,78.23
2022-12-25T02:01:46.495Z,78.43
2022-12-25T02:04:24.259Z,78.25
2022-12-25T02:06:52.022Z,78.40
2022-12-25T02:09:18.799Z,78.37
2022-12-25T02:11:46.916Z,78.39
2022-12-25T02:14:13.426Z,78.64
2022-12-25T02:16:56.774Z,78.67
2022-12-25T02:19:51.211Z,78.39
2022-12-25T02:22:34.511Z,78.17
2022-12-25T02:25:24.061Z,78.20
2022-12-25T02:28:03.848Z,78.85
2022-12-25T02:30:37.472Z,78.84
2022-12-25T02:33:14.066Z,78.58
2022-12-25T02:35:45.573Z,78.38
2022-12-25T02:38:32.680Z,78.32
2022-12-25T02:41:07.190Z,77.97
2022-12-25T02:43:41.384Z,78.83
2022-12-25T02:46:14.752Z,79.15
2022-12-25T02:48:49.091Z,78.96
2022-12-25T02:51:20.681Z,78.71
2022-12-25T02:53:51.227Z,79.24
2022-12-25T02:56:22.042Z,78.69
2022-12-25T02:58:49.727Z,78.63
2022-12-25T03:01:19.969Z,78.85
2022-12-25T03:03:54.628Z,78.76
2022-12-25T03:06:27.263Z,78.98
2022-12-25T03:08:58.384Z,79.00
2022-12-25T03:11:25.893Z,79.29
2022-12-25T03:13:58.018Z,79.65
2022-12-25T03:16:24.510Z,79.85
2022-12-25T03:18:51.006Z,79.58
2022-12-25T03:21:17.489Z,78.74
2022-12-25T03:23:49.340Z,79.07
2022-12-25T03:26:16.635Z,79.89
2022-12-25T03:28:43.170Z,80.26
2022-12-25T03:31:20.081Z,79.88
2022-12-25T03:34:04.602Z,80.03
2022-12-25T03:36:47.879Z,79.44
2022-12-25T03:39:33.734Z,79.73
2022-12-25T03:42:05.685Z,78.67
2022-12-25T03:44:47.280Z,78.78
2022-12-25T03:47:19.894Z,80.07
2022-12-25T03:49:55.493Z,79.64
2022-12-25T03:52:22.602Z,79.95
2022-12-25T03:54:56.118Z,81.72
2022-12-25T03:57:22.607Z,81.17
2022-12-25T03:59:49.100Z,81.41
2022-12-25T04:02:15.727Z,81.34
2022-12-25T04:04:42.226Z,80.96
2022-12-25T04:07:08.680Z,80.32
2022-12-25T04:09:35.135Z,80.87
2022-12-25T04:12:03.059Z,79.40
2022-12-25T04:14:49.806Z,81.30
2022-12-25T04:17:36.251Z,82.23
2022-12-25T04:20:22.771Z,82.37
2022-12-25T04:23:09.252Z,82.28
2022-12-25T04:25:36.043Z,81.16
2022-12-25T04:28:03.524Z,81.45
2022-12-25T04:30:29.994Z,81.22
2022-12-25T04:32:59.620Z,81.35
2022-12-25T04:35:26.075Z,81.09
2022-12-25T04:37:52.569Z,80.54
2022-12-25T04:40:19.028Z,80.12
2022-12-25T04:42:45.649Z,79.93
2022-12-25T04:45:12.518Z,80.30
2022-12-25T04:47:39.007Z,80.13
2022-12-25T04:50:06.681Z,80.20
2022-12-25T04:52:38.483Z,79.24
2022-12-25T04:55:06.782Z,78.41
2022-12-25T04:57:33.381Z,79.05
2022-12-25T04:59:59.842Z,80.52
2022-12-25T05:02:26.616Z,80.22
2022-12-25T05:04:53.259Z,79.77
2022-12-25T05:07:19.764Z,80.16
2022-12-25T05:09:46.260Z,79.88
2022-12-25T05:12:13.240Z,79.55
2022-12-25T05:14:39.692Z,80.23
2022-12-25T05:17:06.139Z,80.69
2022-12-25T05:19:32.686Z,80.02
2022-12-25T05:21:59.244Z,80.07
2022-12-25T05:24:26.713Z,79.35
2022-12-25T05:26:53.757Z,79.03
2022-12-25T05:29:20.421Z,80.26
2022-12-25T05:31:46.957Z,79.31
2022-12-25T05:34:13.490Z,80.16
2022-12-25T05:36:39.974Z,79.50
2022-12-25T05:39:06.442Z,79.41
2022-12-25T05:41:34.641Z,79.30
2022-12-25T05:44:02.144Z,79.65
2022-12-25T05:46:28.680Z,79.36
2022-12-25T05:48:55.566Z,80.54
2022-12-25T05:51:22.046Z,79.65
2022-12-25T05:53:48.587Z,79.54
2022-12-25T05:56:15.102Z,79.49
2022-12-25T05:58:41.603Z,78.75
2022-12-25T06:01:14.256Z,79.23
2022-12-25T06:03:40.773Z,79.78
2022-12-25T06:06:07.414Z,80.26
2022-12-25T06:08:34.562Z,79.70
2022-12-25T06:11:05.888Z,78.88
2022-12-25T06:13:33.621Z,79.33
2022-12-25T06:16:03.913Z,78.12
2022-12-25T06:18:30.447Z,78.91
2022-12-25T06:20:56.917Z,78.61
2022-12-25T06:23:23.490Z,77.67
2022-12-25T06:25:49.961Z,78.66
2022-12-25T06:28:16.461Z,79.33
2022-12-25T06:30:42.944Z,78.98
2022-12-25T06:33:09.401Z,80.88
2022-12-25T06:35:39.252Z,80.25
2022-12-25T06:38:06.055Z,80.83
2022-12-25T06:40:32.926Z,79.33
2022-12-25T06:42:59.386Z,79.10
2022-12-25T06:45:25.932Z,78.14
2022-12-25T06:47:52.424Z,78.52
2022-12-25T06:50:18.893Z,79.07
2022-12-25T06:52:45.496Z,79.02
2022-12-25T06:55:12.062Z,78.72
2022-12-25T06:57:38.581Z,79.22
2022-12-25T07:00:05.897Z,78.48
2022-12-25T07:02:34.346Z,78.71
2022-12-25T07:05:03.021Z,77.91
2022-12-25T07:07:29.508Z,78.36
2022-12-25T07:09:55.984Z,78.07
2022-12-25T07:12:23.824Z,78.54
2022-12-25T07:14:53.199Z,78.32
2022-12-25T07:17:20.871Z,78.36
2022-12-25T07:19:47.560Z,79.28
2022-12-25T07:22:15.303Z,78.97
2022-12-25T07:24:41.981Z,78.10
2022-12-25T07:27:08.936Z,77.91
2022-12-25T07:29:35.391Z,77.49
2022-12-25T07:32:01.929Z,78.00
2022-12-25T07:34:28.463Z,77.81
2022-12-25T07:36:55.244Z,78.79
2022-12-25T07:39:21.696Z,78.85
2022-12-25T07:41:48.242Z,78.86
2022-12-25T07:44:15.424Z,78.58
2022-12-25T07:46:42.304Z,79.08
2022-12-25T07:49:10.232Z,78.43
2022-12-25T07:51:36.710Z,77.98
2022-12-25T07:54:03.273Z,78.30
2022-12-25T07:56:29.834Z,78.63
2022-12-25T07:58:56.627Z,78.12
2022-12-25T08:01:25.519Z,78.35
2022-12-25T08:03:55.043Z,78.13
2022-12-25T08:06:23.745Z,78.08
2022-12-25T08:08:50.258Z,77.70
2022-12-25T08:11:16.701Z,76.97
2022-12-25T08:13:43.196Z,76.93
2022-12-25T08:16:10.782Z,76.33
2022-12-25T08:18:38.868Z,75.78
2022-12-25T08:21:08.767Z,75.96
2022-12-25T08:23:37.844Z,75.86
2022-12-25T08:26:06.253Z,75.05
2022-12-25T08:28:33.420Z,75.20
2022-12-25T08:31:05.343Z,75.22
2022-12-25T08:33:31.874Z,75.73
2022-12-25T08:36:02.948Z,75.28
2022-12-25T08:38:29.404Z,75.81
2022-12-25T08:40:55.915Z,75.65
2022-12-25T08:43:22.424Z,74.83
2022-12-25T08:45:49.215Z,74.43
2022-12-25T08:48:15.778Z,74.39
2022-12-25T08:50:52.864Z,74.26
2022-12-25T08:53:20.505Z,74.62
2022-12-25T08:55:47.002Z,74.39
2022-12-25T08:58:13.975Z,74.94
2022-12-25T09:00:41.273Z,74.86
2022-12-25T09:03:08.267Z,74.46
2022-12-25T09:05:38.137Z,74.90
2022-12-25T09:08:04.849Z,74.52
2022-12-25T09:10:34.663Z,73.90
2022-12-25T09:13:01.312Z,73.65
2022-12-25T09:15:27.869Z,73.30
2022-12-25T09:17:54.445Z,73.45
2022-12-25T09:20:21.008Z,73.70
2022-12-25T09:22:47.739Z,73.13
2022-12-25T09:25:14.270Z,72.84
2022-12-25T09:27:40.754Z,73.19
2022-12-25T09:30:07.746Z,72.54
2022-12-25T09:32:34.296Z,72.14
2022-12-25T09:35:00.794Z,72.73
2022-12-25T09:37:28.647Z,72.68
2022-12-25T09:39:55.160Z,72.27
2022-12-25T09:42:30.991Z,72.16
2022-12-25T09:45:11.801Z,72.77
2022-12-25T09:47:43.998Z,72.44
2022-12-25T09:50:42.218Z,72.92
2022-12-25T09:53:21.215Z,72.31
2022-12-25T09:56:03.827Z,72.48
2022-12-25T09:58:34.252Z,72.59
2022-12-25T10:01:12.802Z,73.10
2022-12-25T10:03:45.258Z,72.87
2022-12-25T10:06:31.373Z,73.54
2022-12-25T10:09:08.135Z,74.34
2022-12-25T10:12:16.298Z,74.42
2022-12-25T10:15:18.727Z,75.00
2022-12-25T10:18:28.225Z,75.41
2022-12-25T10:20:58.385Z,75.50
2022-12-25T10:23:42.980Z,75.57
2022-12-25T10:26:18.594Z,75.74
2022-12-25T10:28:50.955Z,75.29
2022-12-25T10:31:22.875Z,74.79
2022-12-25T10:33:52.326Z,74.74
2022-12-25T10:36:25.146Z,74.57
2022-12-25T10:38:53.060Z,74.91
2022-12-25T10:41:39.341Z,74.31
2022-12-25T10:44:17.365Z,74.21
2022-12-25T10:46:49.014Z,72.90
2022-12-25T10:49:19.465Z,72.86
2022-12-25T10:51:46.180Z,73.11
2022-12-25T10:54:22.155Z,73.15
2022-12-25T10:57:10.207Z,73.61
2022-12-25T10:59:48.795Z,73.31
2022-12-25T11:02:29.936Z,73.25
2022-12-25T11:05:11.167Z,73.05
2022-12-25T11:07:45.320Z,73.07
2022-12-25T11:10:21.994Z,73.01
2022-12-25T11:12:49.370Z,73.26
2022-12-25T11:15:34.148Z,74.24
2022-12-25T11:18:00.739Z,73.88
2022-12-25T11:20:27.683Z,73.90
2022-12-25T11:22:54.166Z,73.74
2022-12-25T11:25:26.610Z,72.98
2022-12-25T11:28:01.516Z,73.84
2022-12-25T11:30:32.325Z,73.57
2022-12-25T11:33:06.683Z,73.23
2022-12-25T11:35:48.775Z,72.49
2022-12-25T11:38:15.348Z,72.71
2022-12-25T11:40:49.002Z,73.03
2022-12-25T11:43:38.405Z,72.45
2022-12-25T11:46:18.164Z,73.20
2022-12-25T11:48:51.453Z,71.95
2022-12-25T11:51:20.464Z,71.24
2022-12-25T11:53:48.796Z,71.88
2022-12-25T11:56:20.354Z,72.23
2022-12-25T11:58:52.366Z,71.28
2022-12-25T12:01:41.939Z,71.24
2022-12-25T12:04:29.446Z,72.08
2022-12-25T12:07:21.124Z,72.13
2022-12-25T12:09:52.715Z,71.72
2022-12-25T12:12:53.145Z,71.06
2022-12-25T12:15:31.337Z,71.98
2022-12-25T12:18:20.698Z,71.39
2022-12-25T12:21:15.948Z,71.15
2022-12-25T12:24:16.130Z,71.86
2022-12-25T12:26:46.077Z,70.52
2022-12-25T12:29:28.928Z,71.69
2022-12-25T12:32:01.745Z,70.47
2022-12-25T12:34:43.625Z,70.94
2022-12-25T12:37:30.380Z,70.95
2022-12-25T12:39:58.090Z,70.74
2022-12-25T12:42:47.358Z,70.58
2022-12-25T12:45:23.204Z,70.29
2022-12-25T12:47:52.987Z,70.21
2022-12-25T12:50:38.155Z,70.49
2022-12-25T12:53:23.044Z,70.52
2022-12-25T12:55:51.302Z,71.20
2022-12-25T12:58:35.187Z,70.45
2022-12-25T13:01:39.740Z,70.34
2022-12-25T13:04:30.582Z,71.25
2022-12-25T13:07:21.901Z,70.18
2022-12-25T13:10:11.972Z,70.75
2022-12-25T13:12:38.620Z,71.00
2022-12-25T13:15:13.634Z,70.03
2022-12-25T13:17:44.992Z,70.12
2022-12-25T13:20:55.745Z,71.06
2022-12-25T13:23:30.032Z,71.35
2022-12-25T13:25:59.588Z,71.17
2022-12-25T13:28:27.204Z,70.59
2022-12-25T13:30:53.752Z,72.12
2022-12-25T13:33:20.404Z,73.33
2022-12-25T13:35:47.400Z,72.67
2022-12-25T13:38:17.211Z,71.91
2022-12-25T13:40:53.009Z,71.13
2022-12-25T13:43:19.562Z,71.09
2022-12-25T13:45:54.478Z,70.13
2022-12-25T13:48:21.429Z,71.09
2022-12-25T13:50:57.695Z,70.39
2022-12-25T13:53:24.213Z,70.57
2022-12-25T13:55:53.350Z,70.69
2022-12-25T13:58:28.581Z,70.38
2022-12-25T14:00:58.462Z,70.59
2022-12-25T14:03:39.496Z,70.14
2022-12-25T14:06:28.062Z,69.52
2022-12-25T14:08:56.745Z,69.46
2022-12-25T14:11:26.820Z,69.57
2022-12-25T14:13:59.547Z,69.79
2022-12-25T14:16:27.491Z,69.06
2022-12-25T14:19:00.530Z,69.09
2022-12-25T14:21:31.632Z,69.21
2022-12-25T14:23:59.395Z,69.34
2022-12-25T14:26:32.685Z,69.37
2022-12-25T14:29:17.560Z,69.00
2022-12-25T14:31:47.179Z,69.51
2022-12-25T14:34:20.866Z,69.39
2022-12-25T14:36:48.807Z,69.77
2022-12-25T14:39:34.704Z,69.29
2022-12-25T14:42:31.402Z,69.61
2022-12-25T14:45:25.766Z,70.08
2022-12-25T14:47:57.261Z,70.08
2022-12-25T14:50:31.246Z,70.01
2022-12-25T14:52:59.518Z,69.05
2022-12-25T14:55:28.687Z,68.98
2022-12-25T14:57:58.767Z,68.63
2022-12-25T15:00:25.221Z,68.55
2022-12-25T15:02:55.243Z,66.60
2022-12-25T15:05:29.528Z,65.98
2022-12-25T15:08:08.204Z,65.58
2022-12-25T15:13:22.578Z,63.79
2022-12-25T15:16:11.484Z,62.99
2022-12-25T15:18:45.000Z,61.71
2022-12-25T15:21:30.934Z,61.09
2022-12-25T15:23:59.602Z,60.85
2022-12-25T15:26:28.400Z,60.96
2022-12-25T15:28:54.869Z,61.24
2022-12-25T15:31:29.837Z,63.92
2022-12-25T15:33:59.475Z,65.38
2022-12-25T15:36:27.466Z,66.26
2022-12-25T15:38:54.850Z,66.81
2022-12-25T15:41:40.505Z,67.65
2022-12-25T15:44:07.831Z,68.25
2022-12-25T15:46:34.466Z,68.72
2022-12-25T15:49:01.155Z,68.87
2022-12-25T15:51:27.699Z,70.75
2022-12-25T15:53:54.333Z,71.98
2022-12-25T15:56:23.197Z,71.61
2022-12-25T15:58:49.835Z,71.82
2022-12-25T16:01:19.274Z,72.12
2022-12-25T16:03:47.216Z,72.63
2022-12-25T16:06:16.621Z,72.86
2022-12-25T16:08:43.657Z,72.87
2022-12-25T16:11:11.463Z,72.86
2022-12-25T16:13:38.002Z,72.99
2022-12-25T16:16:05.067Z,73.11
2022-12-25T16:18:31.654Z,73.38
2022-12-25T16:20:59.483Z,73.60
2022-12-25T16:23:26.050Z,73.46
2022-12-25T16:25:52.531Z,74.54
2022-12-25T16:28:19.019Z,75.01
2022-12-25T16:30:45.550Z,75.26
2022-12-25T16:33:12.184Z,75.80
2022-12-25T16:35:38.758Z,75.34
2022-12-25T16:38:05.279Z,76.18
2022-12-25T16:40:32.223Z,75.83
2022-12-25T16:42:58.953Z,75.44
2022-12-25T16:45:25.498Z,77.14
2022-12-25T16:47:51.988Z,77.05
2022-12-25T16:50:18.600Z,77.00
2022-12-25T16:52:45.192Z,77.55
2022-12-25T16:55:11.733Z,78.06
2022-12-25T16:57:38.280Z,79.53
2022-12-25T17:00:05.973Z,79.62
2022-12-25T17:02:32.727Z,79.88
2022-12-25T17:04:59.328Z,79.12
2022-12-25T17:07:26.710Z,78.59
2022-12-25T17:09:53.163Z,77.85
2022-12-25T17:12:19.626Z,78.01
2022-12-25T17:14:46.195Z,77.49
2022-12-25T17:17:12.642Z,77.08
2022-12-25T17:19:39.208Z,76.61
2022-12-25T17:22:05.699Z,76.28
2022-12-25T17:24:32.197Z,75.41
2022-12-25T17:26:58.706Z,75.47
2022-12-25T17:29:25.236Z,74.98
2022-12-25T17:31:52.029Z,74.64
2022-12-25T17:34:18.746Z,74.54
2022-12-25T17:36:45.282Z,74.51
2022-12-25T17:39:11.860Z,74.25
2022-12-25T17:41:38.398Z,74.26
2022-12-25T17:44:05.234Z,75.75
2022-12-25T17:46:31.855Z,74.96
2022-12-25T17:49:00.285Z,74.18
2022-12-25T17:51:29.120Z,74.28
2022-12-25T17:53:58.873Z,74.65
2022-12-25T17:56:26.064Z,75.45
2022-12-25T17:58:56.642Z,75.72
2022-12-25T18:01:24.725Z,75.06
2022-12-25T18:03:51.983Z,75.49
2022-12-25T18:06:22.154Z,74.78
2022-12-25T18:08:49.468Z,74.95
2022-12-25T18:11:20.499Z,74.50
2022-12-25T18:13:49.418Z,74.77
2022-12-25T18:16:16.960Z,75.39
2022-12-25T18:18:51.182Z,75.08
2022-12-25T18:21:19.495Z,75.35
2022-12-25T18:23:46.038Z,76.43
2022-12-25T18:26:12.644Z,76.46
2022-12-25T18:28:40.301Z,75.98
2022-12-25T18:31:10.991Z,75.18
2022-12-25T18:33:37.549Z,75.16
2022-12-25T18:36:04.574Z,74.91
2022-12-25T18:38:31.052Z,75.14
2022-12-25T18:40:57.639Z,74.45
2022-12-25T18:43:53.960Z,74.24
2022-12-25T18:46:10.873Z,74.42
2022-12-25T18:48:38.221Z,74.17
2022-12-25T18:51:11.488Z,74.56
2022-12-25T18:53:38.294Z,74.74
2022-12-25T18:56:10.939Z,74.44
2022-12-25T18:58:38.218Z,74.59
2022-12-25T19:01:20.490Z,74.03
2022-12-25T19:03:47.647Z,74.44
2022-12-25T19:06:26.723Z,74.45
2022-12-25T19:08:53.643Z,74.88
2022-12-25T19:11:21.189Z,74.71
2022-12-25T19:13:47.733Z,74.66
2022-12-25T19:16:14.330Z,74.33
2022-12-25T19:18:42.676Z,74.60
2022-12-25T19:21:09.567Z,73.88
2022-12-25T19:23:37.375Z,73.47
2022-12-25T19:26:05.633Z,74.47
2022-12-25T19:28:32.163Z,74.50
2022-12-25T19:31:00.400Z,74.04
2022-12-25T19:33:26.976Z,74.25
2022-12-25T19:35:53.495Z,73.12
2022-12-25T19:38:19.975Z,74.02
2022-12-25T19:40:48.192Z,74.41
2022-12-25T19:43:14.772Z,74.70
2022-12-25T19:45:41.363Z,74.33
2022-12-25T19:48:07.892Z,74.75
2022-12-25T19:50:37.160Z,74.58
2022-12-25T19:53:03.615Z,74.87
2022-12-25T19:55:31.818Z,74.33
2022-12-25T19:57:58.290Z,74.00
2022-12-25T20:00:24.766Z,74.13
2022-12-25T20:02:51.370Z,74.86
2022-12-25T20:05:17.936Z,75.47
2022-12-25T20:07:44.386Z,74.59
2022-12-25T20:10:10.845Z,75.15
2022-12-25T20:12:37.362Z,76.41
2022-12-25T20:15:04.107Z,76.10
2022-12-25T20:17:30.616Z,76.86
2022-12-25T20:19:57.100Z,76.07
2022-12-25T20:22:23.599Z,76.14
2022-12-25T20:24:50.113Z,75.70
2022-12-25T20:27:16.628Z,75.44
2022-12-25T20:29:43.133Z,77.00
2022-12-25T20:32:09.674Z,76.24
2022-12-25T20:34:36.653Z,76.52
2022-12-25T20:37:03.122Z,75.77
2022-12-25T20:39:29.660Z,75.86
2022-12-25T20:41:56.164Z,75.72
2022-12-25T20:44:22.932Z,75.58
2022-12-25T20:46:49.394Z,76.70
2022-12-25T20:49:15.869Z,78.53
2022-12-25T20:51:42.365Z,79.21
2022-12-25T20:54:10.276Z,77.92
2022-12-25T20:56:37.489Z,81.33
2022-12-25T20:59:03.951Z,80.63
2022-12-25T21:01:31.063Z,81.90
2022-12-25T21:03:58.290Z,81.87
2022-12-25T21:06:24.850Z,79.91
2022-12-25T21:08:51.356Z,79.14
2022-12-25T21:11:18.276Z,78.63
2022-12-25T21:13:45.504Z,80.00
2022-12-25T21:16:15.824Z,80.50
2022-12-25T21:18:42.507Z,83.44
2022-12-25T21:21:10.073Z,82.12
2022-12-25T21:23:39.423Z,79.84
2022-12-25T21:26:27.038Z,78.94
2022-12-25T21:28:55.966Z,78.23
2022-12-25T21:31:23.977Z,77.70
2022-12-25T21:33:50.599Z,78.24
2022-12-25T21:36:21.269Z,77.21
2022-12-25T21:38:47.872Z,77.39
2022-12-25T21:41:14.944Z,77.03
2022-12-25T21:43:41.449Z,76.73
2022-12-25T21:46:10.995Z,75.86
2022-12-25T21:48:38.778Z,76.63
2022-12-25T21:51:08.420Z,76.51
2022-12-25T21:53:34.886Z,76.73
2022-12-25T21:56:01.786Z,75.82
2022-12-25T21:58:28.752Z,76.51
2022-12-25T22:00:55.564Z,76.75
2022-12-25T22:03:23.936Z,76.51
2022-12-25T22:05:50.488Z,76.43
2022-12-25T22:08:16.957Z,76.54
2022-12-25T22:10:43.492Z,78.40
2022-12-25T22:13:10.063Z,77.49
2022-12-25T22:15:37.092Z,77.70
2022-12-25T22:18:03.687Z,77.33
2022-12-25T22:20:38.217Z,76.75
2022-12-25T22:23:04.963Z,76.51
2022-12-25T22:25:31.787Z,76.89
2022-12-25T22:27:58.341Z,77.10
2022-12-25T22:30:27.464Z,76.68
2022-12-25T22:32:54.935Z,78.13
2022-12-25T22:35:21.743Z,80.94
2022-12-25T22:37:48.470Z,80.09
2022-12-25T22:40:17.002Z,79.28
2022-12-25T22:42:43.844Z,78.00
2022-12-25T22:45:11.297Z,77.32
2022-12-25T22:47:38.008Z,78.04
2022-12-25T22:50:05.369Z,78.25
2022-12-25T22:52:31.847Z,78.25
2022-12-25T22:54:58.342Z,78.87
2022-12-25T22:57:25.125Z,77.72
2022-12-25T22:59:52.311Z,78.30
2022-12-25T23:02:19.011Z,78.24
2022-12-25T23:04:45.755Z,77.26
2022-12-25T23:07:12.257Z,77.28
2022-12-25T23:09:38.723Z,77.27
2022-12-25T23:12:05.602Z,76.69
2022-12-25T23:14:32.038Z,75.77
2022-12-25T23:16:59.829Z,76.06
2022-12-25T23:19:26.616Z,76.70
2022-12-25T23:21:56.364Z,77.77
2022-12-25T23:24:23.059Z,77.96
2022-12-25T23:26:49.543Z,76.64
2022-12-25T23:29:16.038Z,76.25
2022-12-25T23:31:43.129Z,76.84
2022-12-25T23:34:10.572Z,76.32
2022-12-25T23:36:37.131Z,77.05
2022-12-25T23:39:09.643Z,76.31
2022-12-25T23:41:38.580Z,77.02
2022-12-25T23:44:05.291Z,76.47
2022-12-25T23:46:31.898Z,75.70
2022-12-25T23:48:58.395Z,77.41
2022-12-25T23:51:24.982Z,79.16
2022-12-25T23:53:51.493Z,78.22
2022-12-25T23:56:17.943Z,77.11
2022-12-25T23:58:44.470Z,79.71
